createdAt,value
2022-08-26T00:04:56.877Z,19.5
2022-08-26T00:10:17.250Z,19.4
2022-08-26T00:16:08.096Z,19.4
2022-08-26T00:21:51.883Z,19.4
2022-08-26T00:27:24.176Z,19.5
2022-08-26T00:32:59.094Z,19.5
2022-08-26T00:38:18.850Z,19.3
2022-08-26T00:43:57.399Z,19.2
2022-08-26T00:49:48.053Z,18.9
2022-08-26T00:55:15.425Z,18.9
2022-08-26T01:00:37.481Z,18.8
2022-08-26T01:06:16.273Z,18.6
2022-08-26T01:12:09.478Z,18
2022-08-26T01:17:37.961Z,18
2022-08-26T01:23:06.981Z,18.1
2022-08-26T01:28:35.974Z,18.1
2022-08-26T01:34:24.613Z,18.3
2022-08-26T01:39:53.717Z,18.3
2022-08-26T01:45:11.576Z,18.3
2022-08-26T01:51:11.104Z,18.2
2022-08-26T01:56:20.539Z,17.8
2022-08-26T02:01:57.509Z,17.3
2022-08-26T02:07:38.833Z,17.5
2022-08-26T02:13:14.702Z,17.4
2022-08-26T02:18:56.421Z,17.2
2022-08-26T02:24:17.489Z,17.4
2022-08-26T02:29:51.001Z,17.4
2022-08-26T02:35:44.368Z,17.2
2022-08-26T02:40:59.113Z,16.9
2022-08-26T02:46:33.503Z,16.7
2022-08-26T02:52:06.775Z,16.5
2022-08-26T02:58:03.340Z,16.3
2022-08-26T03:03:42.280Z,16.5
2022-08-26T03:08:52.933Z,16.8
2022-08-26T03:14:35.625Z,17
2022-08-26T03:20:15.503Z,17.3
2022-08-26T03:25:58.226Z,16.8
2022-08-26T03:31:19.323Z,16.6
2022-08-26T03:36:51.657Z,16.4
2022-08-26T03:42:21.330Z,16.4
2022-08-26T03:48:00.627Z,16.3
2022-08-26T03:53:38.275Z,16.3
2022-08-26T03:59:17.173Z,16.4
2022-08-26T04:04:40.521Z,16.6
2022-08-26T04:10:33.331Z,16.8
2022-08-26T04:15:58.723Z,16.8
2022-08-26T04:21:23.622Z,16.6
2022-08-26T04:26:57.707Z,16.5
2022-08-26T04:32:29.289Z,16.4
2022-08-26T04:38:16.314Z,16.2
2022-08-26T04:44:04.659Z,16.2
2022-08-26T04:49:16.538Z,16.1
2022-08-26T04:55:06.518Z,16.3
2022-08-26T05:00:43.349Z,16.7
2022-08-26T05:06:13.757Z,17
2022-08-26T05:11:42.551Z,16.9
2022-08-26T05:17:15.833Z,17
2022-08-26T05:22:58.206Z,17.4
2022-08-26T05:28:31.199Z,18.1
2022-08-26T05:33:51.712Z,18.8
2022-08-26T05:39:32.888Z,18.5
2022-08-26T05:45:02.695Z,18
2022-08-26T05:50:56.743Z,17.9
2022-08-26T05:56:17.367Z,17.9
2022-08-26T06:02:05.887Z,18.3
2022-08-26T06:07:28.334Z,18.4
2022-08-26T06:13:20.411Z,18.4
2022-08-26T06:18:54.257Z,18.4
2022-08-26T06:24:08.162Z,18.5
2022-08-26T06:29:51.888Z,18.7
2022-08-26T06:35:31.803Z,18.9
2022-08-26T06:41:01.011Z,18.9
2022-08-26T06:46:44.245Z,19.4
2022-08-26T06:52:09.867Z,19.2
2022-08-26T06:57:48.262Z,19.6
2022-08-26T07:03:44.742Z,19.7
2022-08-26T07:08:54.598Z,20.2
2022-08-26T07:14:31.787Z,20.3
2022-08-26T07:20:18.550Z,20.2
2022-08-26T07:25:42.736Z,20.5
2022-08-26T07:31:47.522Z,20.6
2022-08-26T07:36:57.186Z,20.7
2022-08-26T07:42:49.233Z,20.9
2022-08-26T07:48:31.693Z,21.5
2022-08-26T07:53:47.914Z,21.6
2022-08-26T07:59:28.995Z,22
2022-08-26T08:05:13.348Z,22.2
2022-08-26T08:10:35.326Z,22.9
2022-08-26T08:16:12.596Z,22.7
2022-08-26T08:22:17.714Z,22.6
2022-08-26T08:27:33.796Z,23.2
2022-08-26T08:33:22.472Z,23.9
2022-08-26T08:38:44.634Z,24.6
2022-08-26T08:44:38.477Z,24.1
2022-08-26T08:49:57.648Z,24.5
2022-08-26T08:55:48.891Z,24.2
2022-08-26T09:01:14.452Z,25
2022-08-26T09:07:09.484Z,24.8
2022-08-26T09:12:29.271Z,25.1
2022-08-26T09:18:13.228Z,25.7
2022-08-26T09:23:42.941Z,25.2
2022-08-26T09:29:18.061Z,26.4
2022-08-26T09:35:14.312Z,26.7
2022-08-26T09:40:59.472Z,26.7
2022-08-26T09:46:34.473Z,26.5
2022-08-26T09:51:53.461Z,26.9
2022-08-26T09:57:52.472Z,27.1
2022-08-26T10:03:15.712Z,26.5
2022-08-26T10:08:57.169Z,25.7
2022-08-26T10:14:49.068Z,25.9
2022-08-26T10:20:23.988Z,26
2022-08-26T10:26:09.015Z,25.7
2022-08-26T10:31:27.650Z,26.4
2022-08-26T10:37:15.174Z,27
2022-08-26T10:42:41.308Z,26.3
2022-08-26T10:48:44.287Z,26.7
2022-08-26T10:54:00.633Z,26.6
2022-08-26T10:59:36.782Z,26.1
2022-08-26T11:05:36.183Z,26.5
2022-08-26T11:10:56.664Z,27.1
2022-08-26T11:16:32.890Z,26.4
2022-08-26T11:22:26.959Z,27
2022-08-26T11:28:04.484Z,27.7
2022-08-26T11:33:40.692Z,27.7
2022-08-26T11:39:15.388Z,27.7
2022-08-26T11:44:49.045Z,28.3
2022-08-26T11:50:42.161Z,28.6
2022-08-26T11:56:31.572Z,28.8
2022-08-26T12:01:58.040Z,28.6
2022-08-26T12:07:42.516Z,28.9
2022-08-26T12:13:10.500Z,28.4
2022-08-26T12:19:16.348Z,28.5
2022-08-26T12:24:35.026Z,27.2
2022-08-26T12:30:12.305Z,26.4
2022-08-26T12:36:09.314Z,26
2022-08-26T12:41:44.200Z,25.9
2022-08-26T12:47:04.851Z,26.1
2022-08-26T12:53:00.399Z,25.6
2022-08-26T12:58:31.290Z,26
2022-08-26T13:04:15.941Z,26
2022-08-26T13:09:43.029Z,26.1
2022-08-26T13:21:02.516Z,25.4
2022-08-26T13:26:53.175Z,25.1
2022-08-26T13:32:23.457Z,25.1
2022-08-26T13:38:06.790Z,25
2022-08-26T13:43:45.047Z,25.1
2022-08-26T13:49:18.266Z,25
2022-08-26T13:54:57.492Z,24.8
2022-08-26T14:00:21.584Z,25
2022-08-26T14:06:10.190Z,24.9
2022-08-26T14:11:39.114Z,25
2022-08-26T14:17:25.026Z,24.7
2022-08-26T14:22:47.749Z,24.9
2022-08-26T14:28:34.857Z,24.8
2022-08-26T14:33:58.248Z,24.3
2022-08-26T14:39:50.174Z,24.3
2022-08-26T14:45:11.974Z,24
2022-08-26T14:50:53.110Z,23.8
2022-08-26T14:56:30.317Z,23.7
2022-08-26T15:02:32.509Z,23.7
2022-08-26T15:07:54.899Z,23.7
2022-08-26T15:13:25.684Z,23.7
2022-08-26T15:19:03.089Z,23.6
2022-08-26T15:24:32.114Z,23.5
2022-08-26T15:30:10.300Z,23.4
2022-08-26T15:35:53.703Z,23.4
2022-08-26T15:41:27.349Z,23.2
2022-08-26T15:47:08.504Z,23.3
2022-08-26T15:52:46.461Z,23.3
2022-08-26T15:58:29.601Z,23.4
2022-08-26T16:03:57.619Z,23.3
2022-08-26T16:09:21.164Z,23.2
2022-08-26T16:15:16.480Z,23.1
2022-08-26T16:20:55.411Z,23.1
2022-08-26T16:26:29.493Z,23.1
2022-08-26T16:32:12.988Z,23
2022-08-26T16:37:39.402Z,22.9
2022-08-26T16:43:06.565Z,22.9
2022-08-26T16:48:55.058Z,22.8
2022-08-26T16:54:25.559Z,22.7
2022-08-26T16:59:50.253Z,22.9
2022-08-26T17:05:52.212Z,22.8
2022-08-26T17:11:27.999Z,22.6
2022-08-26T17:17:00.155Z,22.7
2022-08-26T17:22:18.794Z,22.7
2022-08-26T17:27:51.474Z,22.7
2022-08-26T17:33:47.690Z,22.7
2022-08-26T17:39:13.585Z,22.7
2022-08-26T17:44:43.748Z,22.6
2022-08-26T17:50:27.133Z,22.5
2022-08-26T17:56:19.471Z,22.2
2022-08-26T18:01:47.999Z,22.1
2022-08-26T18:07:12.643Z,22.1
2022-08-26T18:12:54.286Z,22
2022-08-26T18:18:36.386Z,22
2022-08-26T18:24:18.388Z,21.9
2022-08-26T18:29:45.392Z,21.8
2022-08-26T18:35:24.286Z,21.6
2022-08-26T18:40:51.794Z,21.3
2022-08-26T18:46:28.853Z,21.2
2022-08-26T18:51:50.795Z,20.7
2022-08-26T18:57:43.968Z,20.7
2022-08-26T19:03:03.368Z,20.4
2022-08-26T19:09:05.528Z,20.6
2022-08-26T19:14:33.270Z,20.9
2022-08-26T19:19:53.478Z,21.1
2022-08-26T19:25:38.760Z,21.3
2022-08-26T19:31:11.235Z,21.2
2022-08-26T19:36:57.438Z,21.2
2022-08-26T19:42:33.201Z,21.2
2022-08-26T19:47:55.029Z,21.1
2022-08-26T19:53:29.701Z,21
2022-08-26T19:59:14.353Z,20.8
2022-08-26T20:04:45.963Z,20.6
2022-08-26T20:10:07.026Z,20.6
2022-08-26T20:15:45.905Z,20.3
2022-08-26T20:21:33.377Z,20.3
2022-08-26T20:26:58.284Z,20.2
2022-08-26T20:32:50.388Z,20.1
2022-08-26T20:38:05.981Z,20
2022-08-26T20:44:02.859Z,19.9
2022-08-26T20:49:33.707Z,19.6
2022-08-26T20:55:02.217Z,19.5
2022-08-26T21:00:42.959Z,19.4
2022-08-26T21:06:12.640Z,19.6
2022-08-26T21:11:45.005Z,19.6
2022-08-26T21:17:30.315Z,19.7
2022-08-26T21:22:59.638Z,19.7
2022-08-26T21:28:37.555Z,19.6
2022-08-26T21:34:13.618Z,19.6
2022-08-26T21:39:46.172Z,19.5
2022-08-26T21:45:18.436Z,19.5
2022-08-26T21:50:57.780Z,19.8
2022-08-26T21:56:16.174Z,20
2022-08-26T22:02:13.014Z,20.1
2022-08-26T22:07:37.530Z,20.1
2022-08-26T22:13:15.251Z,19.9
2022-08-26T22:18:43.455Z,19.6
2022-08-26T22:24:23.856Z,19.6
2022-08-26T22:29:55.140Z,19.2
2022-08-26T22:35:53.722Z,18.8
2022-08-26T22:41:25.460Z,18.5
2022-08-26T22:46:42.422Z,18.4
2022-08-26T22:52:28.455Z,18.3
2022-08-26T22:58:17.027Z,18.4
2022-08-26T23:03:25.709Z,18.8
2022-08-26T23:09:17.511Z,18.9
2022-08-26T23:14:53.276Z,19.3
2022-08-26T23:20:38.320Z,18.8
2022-08-26T23:26:09.999Z,18.8
2022-08-26T23:31:35.321Z,18.7
2022-08-26T23:37:12.929Z,18.7
2022-08-26T23:42:34.643Z,18.6
2022-08-26T23:48:26.141Z,18.4
2022-08-26T23:54:08.647Z,18.3
2022-08-26T23:59:20.703Z,18.5
